Attleboro Falls, MA

1:12 AM EST on March 02, 2015 (GMT -0500)
Bungay Lake | Change Station
CLOSE
Current Station
Personal Weather Station
Location: North Attleborough, MA
Elevation: 158 ft
Nearby Weather Stations
Active Advisory: Winter Storm Warning Active Notice: Public Information Statement

Elev 158 ft 41.99 °N, 71.28 °W | Updated 50 seconds ago

Snow
Snow
28.8 °F
Feels Like 29 °F
N
2.0
Wind Variable Wind from NW
Gusts 2.0 mph

Today
High -- | Low -- °F
--% Chance of Precip.
Yesterday
High -- | Low -- °F
Precip. -- in
6:19 AM 5:36 PM
Waxing Gibbous, 89% visible
Pressure 30.04 in
Visibility 5.0 miles
Clouds Few 2000 ft
Windchill 29 °F
Dew Point 27 °F
Humidity 93%
Rainfall 0.00 in
Snow Depth Not available.
UV 0 out of 12
Pollen .40 out of 12
Air Quality Not available.
Flu Activity Not available.
METAR KSFZ 020555Z 25004KT 5SM FEW020 M02/M04 A3004 RMK AO1 11020 21030 57044

More Conditions Fewer Conditions

Pressure 30.04 in
Visibility 5.0 miles
Clouds Few 2000 ft
Windchill 29 °F
Dew Point 27 °F
Humidity 93%
Rainfall 0.00 in
Snow Depth Not available.
UV 0 out of 12
Pollen .40 out of 12
Air Quality Not available.
Flu Activity Not available.
METAR KSFZ 020555Z 25004KT 5SM FEW020 M02/M04 A3004 RMK AO1 11020 21030 57044

More Conditions Fewer Conditions

10-Day Weather Forecast

Almanac

Astronomy

Mar. 02, 2015 Rise Set
Actual Time
Civil Twilight
Nautical Twilight
Astronomical Twilight
Moon
Length of Visible Light
Length of Day
Tomorrow will be .
, % of the Moon is Illuminated

Today's Extremes

State Highs State Lows

Community

WunderPhotos

Upload Photos

1,801,738 photos uploaded!

WunderBlogs® & News

Nearby

Air Quality

  Air Quality AQ Index Pollutant
Not available.

Snow Depth

Station Depth Elevation

Earthquake Activity

City Distance Mag. Time & Date
Minimum magnitude displayed is 2.5.

Coastal Water Temperatures

Place Temperature

Nearby Weather Stations

Winter Storm Warning
Statement as of 9:19 PM EST on March 01, 2015

... Winter Storm Warning now in effect until 4 am EST Monday...

* locations... central and southern Rhode Island as well as
southeast Massachusetts.

* Hazard types... snow.

* Snow accumulations... 4 to 8 inches of snow.

* Timing... accumulating snow will come to an end by 1 or 2 am

* impacts... untreated roads will be snow covered and slippery
overnight. Even through the snow will be long over by the start
of the Monday morning rush hour... untreated roads will remain
slippery.

* Winds... southwest 5 to 10 mph.

* Visibilities... one half mile or less at times.

* Temperatures... around 30.

Precautionary/preparedness actions...

A Winter Storm Warning is issued when an average of 6 or more
inches of snow is expected in a 12 hour period... or for 8 or more
inches in a 24 hour period. Travel will be slow at best on well
treated surfaces... and quite difficult on any unplowed or
untreated surfaces.